Time;durP1;ratioP1;P1;durP2;ratioP2;P2;SDS_P1;SDS_P2;PMS_P1;PMS_P2;Temp;Humidity;BMP_temperature;BMP_pressure;BME280_temperature;BME280_humidity;BME280_pressure;Samples;Min_cycle;Max_cycle;Signal;HPM_P1;HPM_P2
2022/01/05 00:00:29;;;;;;;16.70;2.70;;;1.90;99.90;;;;;;4852453;29;20171;-87
2022/01/05 00:02:55;;;;;;;22.35;2.90;;;1.90;99.90;;;;;;4842347;29;20079;-87
2022/01/05 00:05:21;;;;;;;11.15;3.10;;;1.90;99.90;;;;;;4855781;29;20106;-87
2022/01/05 00:07:46;;;;;;;12.60;2.58;;;2.10;99.90;;;;;;4855387;29;20049;-87
2022/01/05 00:10:12;;;;;;;9.65;2.40;;;2.20;99.90;;;;;;4855441;29;20049;-87
2022/01/05 00:12:38;;;;;;;18.92;2.95;;;2.20;99.90;;;;;;4836239;29;20129;-88
2022/01/05 00:15:04;;;;;;;12.35;3.10;;;2.30;99.90;;;;;;4852575;29;20406;-87
2022/01/05 00:17:30;;;;;;;10.60;2.28;;;2.40;99.90;;;;;;4855070;29;20042;-88
2022/01/05 00:19:56;;;;;;;9.65;2.70;;;2.60;99.90;;;;;;4839627;29;20110;-86
2022/01/05 00:22:21;;;;;;;9.38;2.00;;;2.60;99.90;;;;;;4825411;29;20528;-87
2022/01/05 00:24:47;;;;;;;14.02;2.05;;;2.60;99.90;;;;;;4824856;29;20081;-87
2022/01/05 00:27:13;;;;;;;18.58;2.42;;;2.70;99.90;;;;;;4825182;29;20045;-87
2022/01/05 00:29:38;;;;;;;6.68;2.55;;;2.60;99.90;;;;;;4825569;29;20053;-87
2022/01/05 00:32:05;;;;;;;13.75;2.05;;;2.60;99.90;;;;;;4824549;29;20521;-87
2022/01/05 00:34:30;;;;;;;16.40;2.22;;;2.50;99.90;;;;;;4824275;29;20497;-87
2022/01/05 00:36:56;;;;;;;12.75;2.20;;;2.40;99.90;;;;;;4824341;29;20046;-86
2022/01/05 00:39:22;;;;;;;9.38;2.17;;;2.40;99.90;;;;;;4824627;29;20137;-86
2022/01/05 00:41:47;;;;;;;8.38;2.40;;;2.40;99.90;;;;;;4824044;29;20505;-86
2022/01/05 00:44:13;;;;;;;11.55;2.40;;;2.40;99.90;;;;;;4854918;29;20088;-87
2022/01/05 00:46:38;;;;;;;10.20;2.05;;;2.30;99.90;;;;;;4839972;29;20042;-87
2022/01/05 00:49:04;;;;;;;15.07;3.10;;;2.30;99.90;;;;;;4839564;29;20524;-87
2022/01/05 00:51:30;;;;;;;11.48;2.20;;;2.20;99.90;;;;;;4839844;29;20085;-87
2022/01/05 00:53:55;;;;;;;15.45;2.90;;;2.20;99.90;;;;;;4839674;29;20157;-87
2022/01/05 00:56:21;;;;;;;15.07;2.35;;;2.10;99.90;;;;;;4824263;29;20037;-86
2022/01/05 00:58:46;;;;;;;12.20;2.22;;;2.10;99.90;;;;;;4853109;29;20136;-86
2022/01/05 01:01:12;;;;;;;10.32;2.17;;;2.00;99.90;;;;;;4857880;29;20042;-86
2022/01/05 01:03:39;;;;;;;9.50;2.33;;;2.00;99.90;;;;;;4857709;29;20095;-86
2022/01/05 01:06:05;;;;;;;15.93;2.13;;;2.00;99.90;;;;;;4858008;29;20052;-87
2022/01/05 01:08:32;;;;;;;8.95;2.65;;;1.90;99.90;;;;;;4858118;29;20136;-87
2022/01/05 01:10:58;;;;;;;8.50;1.88;;;1.90;99.90;;;;;;4850047;29;20053;-86
2022/01/05 01:13:24;;;;;;;12.43;2.05;;;1.90;99.90;;;;;;4839259;29;20066;-86
2022/01/05 01:15:51;;;;;;;16.00;2.45;;;2.00;99.90;;;;;;4839201;29;20159;-86
2022/01/05 01:18:17;;;;;;;13.50;2.38;;;2.10;99.90;;;;;;4838956;29;20060;-86
2022/01/05 01:20:43;;;;;;;10.02;2.22;;;2.10;99.90;;;;;;4839106;29;20045;-86
2022/01/05 01:23:09;;;;;;;9.68;1.60;;;2.10;99.90;;;;;;4839053;29;20042;-87
2022/01/05 01:25:35;;;;;;;12.45;2.00;;;2.20;99.90;;;;;;4839527;29;20409;-86
2022/01/05 01:28:02;;;;;;;11.25;2.15;;;2.30;99.90;;;;;;4838869;29;20058;-87
2022/01/05 01:30:30;;;;;;;9.93;2.42;;;2.30;99.90;;;;;;4839139;29;20167;-86
2022/01/05 01:32:56;;;;;;;10.75;1.98;;;2.30;99.90;;;;;;4838496;29;20130;-86
2022/01/05 01:35:22;;;;;;;18.02;2.63;;;2.30;99.90;;;;;;4823856;29;20524;-86
2022/01/05 01:37:47;;;;;;;11.52;2.33;;;2.30;99.90;;;;;;4823515;29;20501;-86
2022/01/05 01:40:13;;;;;;;10.20;2.20;;;2.30;99.90;;;;;;4823470;29;20057;-86
2022/01/05 01:42:38;;;;;;;10.48;2.25;;;2.40;99.90;;;;;;4838644;29;20085;-86
2022/01/05 01:45:04;;;;;;;16.95;3.08;;;2.40;99.90;;;;;;4823505;29;20068;-86
2022/01/05 01:47:30;;;;;;;14.32;2.53;;;2.40;99.90;;;;;;4853544;29;20529;-86
2022/01/05 01:49:56;;;;;;;14.98;2.33;;;2.40;99.90;;;;;;4838473;29;20056;-86
2022/01/05 01:52:21;;;;;;;15.20;2.40;;;2.40;99.90;;;;;;4838708;29;20060;-86
2022/01/05 01:54:47;;;;;;;14.30;2.30;;;2.40;99.90;;;;;;4823167;29;20105;-86
2022/01/05 01:57:13;;;;;;;13.73;2.45;;;2.30;99.90;;;;;;4823335;29;20078;-86
2022/01/05 01:59:39;;;;;;;11.05;2.47;;;2.20;99.90;;;;;;4823491;29;20086;-86
2022/01/05 02:02:07;;;;;;;20.38;2.85;;;2.20;99.90;;;;;;4837759;29;20049;-86
2022/01/05 02:04:35;;;;;;;13.07;2.83;;;2.20;99.90;;;;;;4838824;29;20050;-86
2022/01/05 02:07:02;;;;;;;16.95;2.60;;;2.20;99.90;;;;;;4822983;29;20049;-86
2022/01/05 02:09:27;;;;;;;14.77;2.75;;;2.30;99.90;;;;;;4838519;29;20061;-86
2022/01/05 02:11:53;;;;;;;15.13;3.25;;;2.20;99.90;;;;;;4837955;29;20050;-86
2022/01/05 02:14:19;;;;;;;17.85;2.95;;;2.20;99.90;;;;;;4823203;29;20049;-86
2022/01/05 02:16:45;;;;;;;11.40;2.53;;;2.20;99.90;;;;;;4837636;29;20054;-86
2022/01/05 02:19:12;;;;;;;17.85;2.85;;;2.20;99.90;;;;;;4838507;29;20404;-86
2022/01/05 02:21:39;;;;;;;18.00;2.42;;;2.20;99.90;;;;;;4823180;29;20050;-86
2022/01/05 02:24:06;;;;;;;15.40;2.10;;;2.20;99.90;;;;;;4822995;29;20050;-87
2022/01/05 02:26:33;;;;;;;18.35;3.40;;;2.00;99.90;;;;;;4822949;29;20098;-86
2022/01/05 02:28:59;;;;;;;14.85;2.70;;;2.20;99.90;;;;;;4837765;29;20068;-86
2022/01/05 02:31:25;;;;;;;17.67;3.38;;;2.20;99.90;;;;;;4837842;29;20042;-86
2022/01/05 02:33:51;;;;;;;11.20;2.17;;;2.20;99.90;;;;;;4837927;29;20569;-86
2022/01/05 02:36:20;;;;;;;12.48;2.67;;;2.10;99.90;;;;;;4837282;29;20053;-86
2022/01/05 02:38:47;;;;;;;24.38;3.20;;;2.20;99.90;;;;;;4837884;29;20046;-86
2022/01/05 02:41:13;;;;;;;14.38;3.20;;;2.20;99.90;;;;;;4837566;29;20046;-86
2022/01/05 02:43:41;;;;;;;12.85;3.05;;;2.20;99.90;;;;;;4837615;29;20068;-86
2022/01/05 02:46:15;;;;;;;18.10;2.95;;;2.20;99.90;;;;;;4822572;29;20057;-87
2022/01/05 02:48:41;;;;;;;17.08;4.20;;;2.30;99.90;;;;;;4837825;29;20048;-86
2022/01/05 02:51:07;;;;;;;17.00;2.75;;;2.20;99.90;;;;;;4837866;29;20136;-86
2022/01/05 02:53:33;;;;;;;17.45;3.20;;;2.40;99.90;;;;;;4837619;29;20046;-86
2022/01/05 02:56:00;;;;;;;16.80;3.35;;;2.40;99.90;;;;;;4837445;29;20113;-87
2022/01/05 02:58:26;;;;;;;13.25;2.55;;;2.40;99.90;;;;;;4837561;29;20054;-86
2022/01/05 03:00:52;;;;;;;14.35;3.10;;;2.40;99.90;;;;;;4836907;29;20053;-86
2022/01/05 03:03:18;;;;;;;20.63;3.97;;;2.50;99.90;;;;;;4837382;29;20050;-86
2022/01/05 03:05:44;;;;;;;17.20;3.05;;;2.40;99.90;;;;;;4822373;29;20584;-86
2022/01/05 03:08:09;;;;;;;18.33;3.03;;;2.40;99.90;;;;;;4837806;29;20077;-86
2022/01/05 03:10:35;;;;;;;19.45;2.92;;;2.50;99.90;;;;;;4837252;29;20050;-85
2022/01/05 03:13:01;;;;;;;18.60;3.03;;;2.50;99.90;;;;;;4837192;29;20057;-86
2022/01/05 03:15:27;;;;;;;19.52;2.97;;;2.60;99.90;;;;;;4837167;29;20049;-86
2022/01/05 03:17:52;;;;;;;18.58;2.78;;;2.60;99.90;;;;;;4837071;29;20081;-86
2022/01/05 03:20:19;;;;;;;21.10;3.15;;;2.70;99.90;;;;;;4836822;29;20057;-86
2022/01/05 03:22:45;;;;;;;24.20;3.60;;;2.80;99.90;;;;;;4837107;29;20046;-86
2022/01/05 03:25:16;;;;;;;12.52;2.17;;;2.80;99.90;;;;;;4849044;29;20400;-86
2022/01/05 03:27:46;;;;;;;17.10;2.47;;;2.80;99.90;;;;;;4844642;29;20050;-86
2022/01/05 03:30:14;;;;;;;17.38;3.40;;;2.80;99.90;;;;;;4821438;29;20037;-86
2022/01/05 03:32:58;;;;;;;19.08;2.80;;;2.80;99.90;;;;;;4837168;29;20050;-86
2022/01/05 03:35:24;;;;;;;18.30;2.97;;;2.90;99.90;;;;;;4821671;29;20129;-85
2022/01/05 03:37:50;;;;;;;17.77;3.55;;;2.90;99.90;;;;;;4821735;29;20125;-86
2022/01/05 03:40:16;;;;;;;21.35;3.20;;;2.90;99.90;;;;;;4837038;29;20050;-85
2022/01/05 03:42:41;;;;;;;18.13;2.67;;;2.90;99.90;;;;;;4821265;29;20084;-86
2022/01/05 03:45:08;;;;;;;32.88;3.38;;;2.90;99.90;;;;;;4836386;29;20065;-85
2022/01/05 03:47:34;;;;;;;25.15;3.20;;;2.90;99.90;;;;;;4840354;29;20549;-86
2022/01/05 03:49:59;;;;;;;26.17;3.20;;;2.90;99.90;;;;;;4840124;29;20465;-86
2022/01/05 03:52:25;;;;;;;21.20;3.17;;;2.80;99.90;;;;;;4825286;29;20084;-85
2022/01/05 03:54:51;;;;;;;15.45;3.75;;;2.90;99.90;;;;;;4840096;29;20058;-86
2022/01/05 03:57:16;;;;;;;24.35;3.13;;;2.90;99.90;;;;;;4840340;29;20049;-85
2022/01/05 03:59:42;;;;;;;24.65;3.70;;;2.90;99.90;;;;;;4824844;29;20621;-85
2022/01/05 04:02:08;;;;;;;21.23;3.08;;;2.90;99.90;;;;;;4831740;29;20469;-85
2022/01/05 04:04:33;;;;;;;24.85;3.03;;;2.90;99.90;;;;;;4853786;29;20042;-85
2022/01/05 04:06:59;;;;;;;15.45;2.97;;;2.90;99.90;;;;;;4840305;29;20046;-86
2022/01/05 04:09:24;;;;;;;15.02;2.95;;;3.00;99.90;;;;;;4840163;29;20402;-86
2022/01/05 04:11:50;;;;;;;19.35;3.58;;;3.00;99.90;;;;;;4839738;29;20390;-86
2022/01/05 04:14:15;;;;;;;16.60;2.78;;;3.10;99.90;;;;;;4840071;29;20054;-86
2022/01/05 04:16:41;;;;;;;20.17;2.75;;;3.10;99.90;;;;;;4840195;29;20450;-85
2022/01/05 04:19:06;;;;;;;21.50;3.20;;;3.00;99.90;;;;;;4840443;29;20463;-86
2022/01/05 04:21:32;;;;;;;22.30;3.75;;;3.10;99.90;;;;;;4840089;29;20132;-86
2022/01/05 04:23:57;;;;;;;13.02;2.33;;;3.00;99.90;;;;;;4840215;29;20050;-86
2022/01/05 04:26:23;;;;;;;14.88;2.63;;;3.10;99.90;;;;;;4839707;29;20045;-86
2022/01/05 04:28:49;;;;;;;16.77;3.53;;;3.10;99.90;;;;;;4839858;29;20050;-86
2022/01/05 04:31:15;;;;;;;16.27;3.20;;;3.20;99.90;;;;;;4824930;29;20050;-86
2022/01/05 04:33:40;;;;;;;13.07;3.03;;;3.20;99.90;;;;;;4824239;29;20038;-85
2022/01/05 04:36:06;;;;;;;22.15;3.08;;;3.30;99.90;;;;;;4840132;29;20049;-86
2022/01/05 04:38:31;;;;;;;18.27;2.80;;;3.30;99.90;;;;;;4824261;29;20050;-86
2022/01/05 04:40:57;;;;;;;19.02;3.00;;;3.30;99.90;;;;;;4839294;29;20049;-85
2022/01/05 04:43:23;;;;;;;22.33;2.97;;;3.40;99.90;;;;;;4839381;29;20085;-86
2022/01/05 04:45:49;;;;;;;20.50;2.92;;;3.40;99.90;;;;;;4839288;29;20069;-86
2022/01/05 04:48:15;;;;;;;20.33;3.80;;;3.40;99.90;;;;;;4824385;29;20102;-85
2022/01/05 04:50:40;;;;;;;15.15;2.45;;;3.40;99.90;;;;;;4824052;29;20569;-86
2022/01/05 04:53:06;;;;;;;10.88;2.05;;;3.40;99.90;;;;;;4824015;29;20056;-86
2022/01/05 04:55:32;;;;;;;15.15;2.72;;;3.40;99.90;;;;;;4823723;29;20050;-85
2022/01/05 04:57:57;;;;;;;17.42;2.45;;;3.40;99.90;;;;;;4838603;29;20075;-86
2022/01/05 05:00:23;;;;;;;19.25;3.92;;;3.40;99.90;;;;;;4839174;29;20046;-85
2022/01/05 05:02:48;;;;;;;17.33;2.90;;;3.30;99.90;;;;;;4839199;29;20053;-86
2022/01/05 05:05:14;;;;;;;18.77;2.92;;;3.30;99.90;;;;;;4839640;29;20470;-85
2022/01/05 05:07:40;;;;;;;18.48;3.10;;;3.20;99.90;;;;;;4839349;29;20053;-85
2022/01/05 05:10:06;;;;;;;18.40;2.65;;;3.20;99.90;;;;;;4838758;29;20664;-86
2022/01/05 05:12:32;;;;;;;18.25;2.45;;;3.30;99.90;;;;;;4839354;29;20508;-85
2022/01/05 05:14:57;;;;;;;15.65;3.40;;;3.20;99.90;;;;;;4838766;29;20124;-86
2022/01/05 05:17:23;;;;;;;16.35;2.83;;;3.30;99.90;;;;;;4824283;29;20450;-86
2022/01/05 05:19:48;;;;;;;12.27;2.95;;;3.30;99.90;;;;;;4838820;29;20161;-86
2022/01/05 05:22:14;;;;;;;22.23;2.65;;;3.40;99.90;;;;;;4823934;29;20088;-85
2022/01/05 05:24:39;;;;;;;12.13;2.53;;;3.40;99.90;;;;;;4838513;29;20057;-86
2022/01/05 05:27:05;;;;;;;21.80;3.30;;;3.30;99.90;;;;;;4838978;29;20050;-86
2022/01/05 05:29:31;;;;;;;20.50;2.72;;;3.40;99.90;;;;;;4830170;29;20046;-86
2022/01/05 05:31:57;;;;;;;18.75;2.90;;;3.30;99.90;;;;;;4823700;29;20054;-86
2022/01/05 05:34:23;;;;;;;16.50;2.40;;;3.40;99.90;;;;;;4838889;29;20096;-85
2022/01/05 05:36:49;;;;;;;16.27;2.58;;;3.40;99.90;;;;;;4816263;29;20478;-86
2022/01/05 05:39:14;;;;;;;13.38;2.17;;;3.50;99.90;;;;;;4823174;29;20085;-86
2022/01/05 05:41:40;;;;;;;16.80;2.95;;;3.60;99.90;;;;;;4838877;29;20054;-85
2022/01/05 05:44:06;;;;;;;21.83;3.17;;;3.60;99.90;;;;;;4823637;29;20140;-86
2022/01/05 05:46:31;;;;;;;18.05;2.88;;;3.60;99.90;;;;;;4838828;29;20045;-86
2022/01/05 05:48:57;;;;;;;19.75;3.05;;;3.60;99.90;;;;;;4823378;29;20078;-86
2022/01/05 05:51:22;;;;;;;19.42;3.03;;;3.70;99.90;;;;;;4823423;29;20099;-85
2022/01/05 05:53:48;;;;;;;15.02;3.15;;;3.70;99.90;;;;;;4822907;29;20054;-86
2022/01/05 05:56:13;;;;;;;17.25;3.60;;;3.70;99.90;;;;;;4838676;29;20092;-86
2022/01/05 05:58:39;;;;;;;18.17;3.28;;;3.70;99.90;;;;;;4823218;29;20061;-86
2022/01/05 06:01:05;;;;;;;25.00;4.18;;;3.80;99.90;;;;;;4834975;29;20632;-85
2022/01/05 06:03:30;;;;;;;33.83;5.40;;;3.90;99.90;;;;;;4854164;29;20596;-86
2022/01/05 06:05:56;;;;;;;21.52;3.83;;;3.80;99.90;;;;;;4822919;29;20130;-86
2022/01/05 06:08:21;;;;;;;22.55;5.03;;;4.00;99.90;;;;;;4822897;29;20056;-86
2022/01/05 06:10:47;;;;;;;15.95;3.42;;;4.00;99.90;;;;;;4849640;29;20077;-86
2022/01/05 06:13:12;;;;;;;22.13;5.97;;;4.00;99.90;;;;;;4823086;29;20050;-86
2022/01/05 06:15:38;;;;;;;19.85;4.82;;;4.10;99.90;;;;;;4823534;29;20563;-86
2022/01/05 06:18:03;;;;;;;22.50;4.75;;;4.10;99.90;;;;;;4823028;29;20042;-87
2022/01/05 06:20:29;;;;;;;23.05;5.85;;;4.10;99.90;;;;;;4823301;29;20050;-86
2022/01/05 06:22:55;;;;;;;28.70;4.78;;;4.20;99.90;;;;;;4828864;29;20057;-87
2022/01/05 06:25:20;;;;;;;25.33;5.20;;;4.10;99.90;;;;;;4838296;29;20050;-86
2022/01/05 06:27:46;;;;;;;16.75;4.05;;;4.10;99.90;;;;;;4838250;29;20085;-87
2022/01/05 06:30:12;;;;;;;21.98;4.45;;;4.10;99.90;;;;;;4855703;29;20050;-87
2022/01/05 06:32:42;;;;;;;21.75;4.20;;;4.10;99.90;;;;;;4850100;29;20082;-86
2022/01/05 06:35:09;;;;;;;22.45;3.63;;;4.10;99.90;;;;;;4822266;29;20046;-86
2022/01/05 06:37:34;;;;;;;19.73;3.50;;;4.10;99.90;;;;;;4837832;29;20397;-86
2022/01/05 06:40:00;;;;;;;21.40;4.40;;;4.10;99.90;;;;;;4822534;29;20049;-86
2022/01/05 06:42:25;;;;;;;15.77;3.05;;;4.10;99.90;;;;;;4822568;29;20133;-86
2022/01/05 06:44:51;;;;;;;19.02;2.50;;;4.20;99.90;;;;;;4822274;29;20413;-87
2022/01/05 06:47:17;;;;;;;23.83;3.72;;;4.30;99.90;;;;;;4822774;29;20049;-87
2022/01/05 06:49:43;;;;;;;15.95;3.05;;;4.20;99.90;;;;;;4822059;29;20050;-86
2022/01/05 06:52:11;;;;;;;15.20;3.08;;;4.20;99.90;;;;;;4837091;29;20048;-86
2022/01/05 06:54:40;;;;;;;24.70;3.05;;;4.20;99.90;;;;;;4837412;29;20046;-86
2022/01/05 06:57:06;;;;;;;13.07;2.00;;;4.30;99.90;;;;;;4837714;29;20141;-86
2022/01/05 06:59:32;;;;;;;11.40;2.45;;;4.30;99.90;;;;;;4837389;29;20046;-87
2022/01/05 07:01:57;;;;;;;12.60;2.83;;;4.30;99.90;;;;;;4837375;29;20195;-86
2022/01/05 07:04:23;;;;;;;13.43;2.97;;;4.30;99.90;;;;;;4822848;29;20085;-86
2022/01/05 07:06:48;;;;;;;15.57;2.80;;;4.20;99.90;;;;;;4822123;29;20097;-86
2022/01/05 07:09:14;;;;;;;8.98;2.03;;;4.20;99.90;;;;;;4837316;29;20042;-86
2022/01/05 07:11:40;;;;;;;10.35;2.33;;;4.20;99.90;;;;;;4837356;29;20082;-87
2022/01/05 07:14:06;;;;;;;11.35;1.65;;;4.20;99.90;;;;;;4837456;29;20050;-86
2022/01/05 07:16:32;;;;;;;7.55;2.15;;;4.20;99.90;;;;;;4837774;29;20049;-87
2022/01/05 07:18:57;;;;;;;12.45;2.10;;;4.20;99.90;;;;;;4843412;29;20060;-86
2022/01/05 07:21:23;;;;;;;8.98;1.98;;;4.20;99.90;;;;;;4837754;29;20417;-85
2022/01/05 07:23:48;;;;;;;8.93;2.30;;;4.20;99.90;;;;;;4836793;29;20042;-86
2022/01/05 07:26:14;;;;;;;7.90;2.00;;;4.20;99.90;;;;;;4836429;29;20056;-86
2022/01/05 07:28:39;;;;;;;8.75;1.83;;;4.20;99.90;;;;;;4821698;29;20050;-86
2022/01/05 07:31:05;;;;;;;6.97;2.00;;;4.20;99.90;;;;;;4820290;29;20091;-86
2022/01/05 07:33:31;;;;;;;12.13;1.60;;;4.20;99.90;;;;;;4821442;29;20049;-85
2022/01/05 07:35:56;;;;;;;6.18;1.80;;;4.10;99.90;;;;;;4837103;29;20049;-85
2022/01/05 07:38:22;;;;;;;12.98;2.22;;;4.20;99.90;;;;;;4836880;29;20046;-87
2022/01/05 07:40:48;;;;;;;13.50;2.60;;;4.20;99.90;;;;;;4821602;29;20457;-86
2022/01/05 07:43:13;;;;;;;20.25;3.88;;;4.20;99.90;;;;;;4821972;29;20053;-86
2022/01/05 07:45:39;;;;;;;9.38;2.80;;;4.20;99.90;;;;;;4821913;29;20045;-86
2022/01/05 07:48:05;;;;;;;14.13;2.85;;;4.20;99.90;;;;;;4816108;29;20054;-86
2022/01/05 07:50:32;;;;;;;8.48;2.10;;;4.20;99.90;;;;;;4819883;29;20038;-86
2022/01/05 07:53:00;;;;;;;15.90;2.85;;;4.30;99.90;;;;;;4834985;29;20042;-86
2022/01/05 07:55:30;;;;;;;17.42;2.67;;;4.30;99.90;;;;;;4820503;29;20046;-85
2022/01/05 07:57:56;;;;;;;17.70;2.50;;;4.20;99.90;;;;;;4821288;29;20048;-86
2022/01/05 08:00:21;;;;;;;16.40;2.80;;;4.10;99.90;;;;;;4832698;29;20141;-85
2022/01/05 08:02:47;;;;;;;12.65;2.38;;;4.10;99.90;;;;;;4835118;29;20049;-85
2022/01/05 08:05:13;;;;;;;22.90;3.78;;;4.00;99.90;;;;;;4836429;29;20050;-85
2022/01/05 08:07:38;;;;;;;15.55;3.35;;;4.00;99.90;;;;;;4816363;29;20493;-85
2022/01/05 08:10:04;;;;;;;17.17;2.72;;;4.10;99.90;;;;;;4827806;29;20058;-86
2022/01/05 08:12:30;;;;;;;21.17;3.22;;;4.20;99.90;;;;;;4831306;29;20133;-85
2022/01/05 08:14:55;;;;;;;23.75;3.33;;;4.20;99.90;;;;;;4834520;29;20102;-85
2022/01/05 08:17:21;;;;;;;25.85;3.13;;;4.30;99.90;;;;;;4819696;29;20093;-85
2022/01/05 08:19:46;;;;;;;19.73;2.85;;;4.40;99.90;;;;;;4834587;29;20127;-85
2022/01/05 08:22:12;;;;;;;24.05;2.83;;;4.50;99.90;;;;;;4834389;29;20433;-85
2022/01/05 08:24:38;;;;;;;22.20;3.40;;;4.60;99.90;;;;;;4834699;29;20100;-85
2022/01/05 08:27:04;;;;;;;19.10;3.30;;;4.70;99.90;;;;;;4833668;29;20165;-86
2022/01/05 08:29:29;;;;;;;20.88;3.03;;;4.70;99.90;;;;;;4818124;29;20140;-86
2022/01/05 08:31:55;;;;;;;20.65;2.78;;;4.70;99.90;;;;;;4829229;29;20637;-86
2022/01/05 08:34:20;;;;;;;15.75;2.55;;;4.80;99.90;;;;;;4822445;29;20049;-85
2022/01/05 08:36:46;;;;;;;15.80;3.00;;;4.90;99.90;;;;;;4823464;29;20045;-85
2022/01/05 08:39:12;;;;;;;15.63;2.25;;;4.80;99.90;;;;;;4839116;29;20050;-85
2022/01/05 08:41:38;;;;;;;16.35;2.35;;;4.90;99.90;;;;;;4838097;29;20049;-85
2022/01/05 08:44:03;;;;;;;15.20;2.65;;;4.90;99.90;;;;;;4838453;29;20058;-85
2022/01/05 08:46:29;;;;;;;14.68;2.35;;;4.90;99.90;;;;;;4823533;29;20042;-85
2022/01/05 08:48:55;;;;;;;17.88;2.33;;;4.90;99.90;;;;;;4838911;29;20136;-86
2022/01/05 08:51:21;;;;;;;22.20;2.60;;;4.90;99.90;;;;;;4839635;29;20158;-85
2022/01/05 08:53:46;;;;;;;11.05;2.42;;;4.90;99.90;;;;;;4834160;29;20050;-85
2022/01/05 08:56:12;;;;;;;23.33;3.60;;;4.90;99.90;;;;;;4815345;29;20050;-87
2022/01/05 08:58:39;;;;;;;17.27;1.88;;;4.90;99.90;;;;;;4830918;29;20050;-86
2022/01/05 09:01:05;;;;;;;10.43;2.38;;;5.00;99.90;;;;;;4836258;29;20050;-86
2022/01/05 09:03:31;;;;;;;9.48;2.40;;;5.00;99.90;;;;;;4839321;29;20069;-86
2022/01/05 09:05:56;;;;;;;11.82;2.47;;;5.10;99.90;;;;;;4839210;29;20081;-86
2022/01/05 09:08:22;;;;;;;21.45;2.60;;;5.10;99.90;;;;;;4839238;29;20053;-86
2022/01/05 09:10:48;;;;;;;18.60;2.72;;;5.10;99.90;;;;;;4838939;29;20478;-86
2022/01/05 09:13:14;;;;;;;16.13;2.53;;;5.10;99.90;;;;;;4839452;29;20050;-86
2022/01/05 09:15:41;;;;;;;11.00;2.17;;;5.20;99.90;;;;;;4839612;29;20050;-87
2022/01/05 09:18:06;;;;;;;14.57;2.60;;;5.20;99.90;;;;;;4839061;29;20045;-86
2022/01/05 09:20:32;;;;;;;9.80;2.10;;;5.30;99.90;;;;;;4839185;29;20057;-86
2022/01/05 09:22:58;;;;;;;15.82;2.20;;;5.30;99.90;;;;;;4823350;29;20057;-86
2022/01/05 09:25:24;;;;;;;14.65;2.13;;;5.40;99.90;;;;;;4823667;29;20497;-86
2022/01/05 09:27:51;;;;;;;17.27;2.85;;;5.40;99.90;;;;;;4823289;29;20102;-86
2022/01/05 09:30:18;;;;;;;14.50;2.38;;;5.40;99.90;;;;;;4838863;29;20038;-85
2022/01/05 09:32:44;;;;;;;16.98;2.50;;;5.50;99.90;;;;;;4853584;29;20050;-85
2022/01/05 09:35:14;;;;;;;14.57;2.60;;;5.40;99.90;;;;;;4823551;29;20050;-87
2022/01/05 09:37:50;;;;;;;15.00;2.38;;;5.50;99.90;;;;;;4823492;29;20042;-85
2022/01/05 09:43:02;;;;;;;;;;;5.60;99.90;;;;;;4840682;29;20095;-86
2022/01/05 09:45:28;;;;;;;28.90;3.10;;;5.60;99.90;;;;;;4841910;29;20302;-86
2022/01/05 09:48:15;;;;;;;17.95;2.85;;;5.60;99.90;;;;;;4846734;29;20137;-88
2022/01/05 09:51:02;;;;;;;31.00;3.67;;;5.60;99.90;;;;;;4841715;29;20053;-86
2022/01/05 09:53:30;;;;;;;29.45;2.90;;;5.60;99.90;;;;;;4841494;29;20041;-85
2022/01/05 09:55:57;;;;;;;20.67;2.88;;;5.60;99.90;;;;;;4841435;29;20041;-86
2022/01/05 09:58:23;;;;;;;22.55;2.72;;;5.60;99.90;;;;;;4841842;29;20461;-86
2022/01/05 10:00:51;;;;;;;17.75;2.90;;;5.70;99.90;;;;;;4840744;29;20088;-86
2022/01/05 10:03:17;;;;;;;21.38;3.28;;;5.70;99.90;;;;;;4841549;29;20080;-86
2022/01/05 10:05:43;;;;;;;26.85;3.30;;;5.60;99.90;;;;;;4841285;29;20076;-86
2022/01/05 10:08:09;;;;;;;31.20;3.50;;;5.60;99.90;;;;;;4841466;29;20046;-86
2022/01/05 10:10:35;;;;;;;30.63;4.75;;;5.70;99.90;;;;;;4841044;29;20129;-87
2022/01/05 10:13:01;;;;;;;23.30;3.35;;;5.70;99.90;;;;;;4841259;29;20174;-85
2022/01/05 10:15:27;;;;;;;30.50;4.20;;;5.80;99.90;;;;;;4840512;29;20052;-86
2022/01/05 10:18:17;;;;;;;27.65;4.57;;;5.80;99.90;;;;;;4840684;29;20049;-85
2022/01/05 10:21:03;;;;;;;25.58;3.42;;;5.90;99.90;;;;;;4840774;29;20060;-85
2022/01/05 10:23:47;;;;;;;33.20;3.65;;;5.90;99.90;;;;;;4841012;29;20049;-85
2022/01/05 10:26:20;;;;;;;32.63;4.57;;;6.00;99.90;;;;;;4840992;29;20061;-85
2022/01/05 10:28:46;;;;;;;31.02;4.15;;;6.10;99.90;;;;;;4840093;29;20057;-85
2022/01/05 10:31:27;;;;;;;26.75;2.92;;;6.10;99.90;;;;;;4825665;29;20042;-85
2022/01/05 10:33:53;;;;;;;27.42;3.63;;;6.30;99.90;;;;;;4825059;29;20049;-85
2022/01/05 10:36:19;;;;;;;31.38;3.72;;;6.40;99.90;;;;;;4825700;29;20041;-85
2022/01/05 10:38:56;;;;;;;27.05;3.50;;;6.50;99.90;;;;;;4825582;29;20133;-85
2022/01/05 10:41:24;;;;;;;27.73;3.58;;;6.50;99.90;;;;;;4840807;29;20049;-85
2022/01/05 10:44:15;;;;;;;20.48;3.00;;;6.60;99.90;;;;;;4839833;29;20068;-86
2022/01/05 10:46:56;;;;;;;27.00;3.65;;;6.70;99.90;;;;;;4825401;29;20085;-85
2022/01/05 10:49:22;;;;;;;24.92;3.55;;;6.60;99.90;;;;;;4840809;29;20049;-85
2022/01/05 10:51:48;;;;;;;26.55;3.85;;;6.60;99.90;;;;;;4840447;29;20096;-85
2022/01/05 10:54:16;;;;;;;21.25;2.97;;;6.60;99.90;;;;;;4825475;29;20077;-85
2022/01/05 10:56:42;;;;;;;38.25;4.53;;;6.60;99.90;;;;;;4839934;29;20725;-86
2022/01/05 10:59:09;;;;;;;26.55;4.00;;;6.70;99.90;;;;;;4840393;29;20526;-86
2022/01/05 11:01:35;;;;;;;20.35;3.20;;;6.90;99.90;;;;;;4840790;29;20125;-85
2022/01/05 11:04:23;;;;;;;21.75;3.30;;;7.00;99.90;;;;;;4839977;29;20109;-86
2022/01/05 11:07:03;;;;;;;29.30;2.70;;;7.20;99.90;;;;;;4825245;29;20082;-86
2022/01/05 11:09:30;;;;;;;25.48;4.57;;;7.30;99.90;;;;;;4825267;29;20057;-86
2022/01/05 11:11:56;;;;;;;32.13;3.33;;;7.30;99.90;;;;;;4823814;29;20038;-87
2022/01/05 11:14:34;;;;;;;23.92;3.42;;;7.50;99.90;;;;;;4868048;29;20674;-87
2022/01/05 11:17:05;;;;;;;22.38;3.58;;;7.60;99.90;;;;;;4859110;29;20978;-86
2022/01/05 11:19:33;;;;;;;33.08;3.45;;;7.60;99.90;;;;;;4843835;29;20132;-86
2022/01/05 11:22:09;;;;;;;31.73;4.05;;;7.60;99.90;;;;;;4839858;29;20516;-86
2022/01/05 11:24:42;;;;;;;17.35;3.13;;;7.70;99.90;;;;;;4840248;29;20048;-87
2022/01/05 11:27:24;;;;;;;24.85;3.08;;;7.80;99.90;;;;;;4825008;29;20072;-86
2022/01/05 11:29:50;;;;;;;22.95;3.08;;;7.90;99.90;;;;;;4824578;29;20045;-86
2022/01/05 11:32:20;;;;;;;17.55;2.92;;;7.90;99.90;;;;;;4825330;29;20050;-86
2022/01/05 11:34:46;;;;;;;16.02;2.13;;;8.00;99.90;;;;;;4839646;29;20045;-86
2022/01/05 11:37:12;;;;;;;11.63;2.42;;;8.10;99.90;;;;;;4840281;29;20052;-86
2022/01/05 11:39:48;;;;;;;12.13;2.03;;;8.20;99.90;;;;;;4825233;29;20428;-86
2022/01/05 11:42:18;;;;;;;11.25;1.95;;;8.30;99.90;;;;;;4839445;29;20599;-86
2022/01/05 11:44:51;;;;;;;16.83;2.35;;;8.20;99.90;;;;;;4852283;29;20505;-86
2022/01/05 11:47:23;;;;;;;15.23;1.80;;;8.10;99.90;;;;;;4840032;29;20064;-86
2022/01/05 11:49:50;;;;;;;19.58;2.85;;;8.10;99.90;;;;;;4839696;29;20136;-86
2022/01/05 11:52:16;;;;;;;16.65;2.40;;;8.00;99.90;;;;;;4839732;29;20048;-86
2022/01/05 11:55:01;;;;;;;14.15;2.60;;;7.80;99.90;;;;;;4839563;29;20081;-86
2022/01/05 11:57:26;;;;;;;16.50;2.60;;;7.80;99.90;;;;;;4839818;29;20050;-86
2022/01/05 12:00:16;;;;;;;24.00;2.58;;;7.70;99.90;;;;;;4824045;29;20060;-86
2022/01/05 12:02:41;;;;;;;20.15;2.50;;;7.60;99.90;;;;;;4824612;29;20090;-86
2022/01/05 12:05:07;;;;;;;9.63;2.03;;;7.40;99.90;;;;;;4844767;29;20431;-86
2022/01/05 12:07:43;;;;;;;17.83;2.67;;;7.30;99.90;;;;;;4845080;29;20042;-86
2022/01/05 12:10:21;;;;;;;14.13;2.10;;;7.30;99.90;;;;;;4861428;29;20249;-86
2022/01/05 12:13:04;;;;;;;14.43;2.25;;;7.10;99.90;;;;;;4846528;29;20046;-85
2022/01/05 12:15:40;;;;;;;11.57;1.85;;;7.00;99.90;;;;;;4843225;29;20483;-86
2022/01/05 12:18:06;;;;;;;10.82;1.42;;;6.90;99.90;;;;;;4839215;29;20045;-85
2022/01/05 12:20:37;;;;;;;13.30;2.08;;;6.90;99.90;;;;;;4845338;29;20049;-86
2022/01/05 12:23:24;;;;;;;17.35;2.05;;;6.90;99.90;;;;;;4840575;29;20042;-85
2022/01/05 12:26:07;;;;;;;19.35;2.78;;;6.80;99.90;;;;;;4842589;29;20148;-85
2022/01/05 12:28:33;;;;;;;16.17;2.85;;;6.80;99.90;;;;;;4843041;29;20176;-86
2022/01/05 12:30:59;;;;;;;19.02;2.80;;;6.90;99.90;;;;;;4840481;29;20197;-85
2022/01/05 12:33:26;;;;;;;14.52;2.35;;;6.90;99.90;;;;;;4842058;29;20050;-83
2022/01/05 12:35:57;;;;;;;21.80;2.72;;;6.90;99.90;;;;;;4845370;29;20050;-83
2022/01/05 12:38:47;;;;;;;17.70;2.80;;;6.80;99.90;;;;;;4845759;29;20045;-84
2022/01/05 12:41:29;;;;;;;19.45;2.50;;;6.80;99.90;;;;;;4839552;29;20126;-85
2022/01/05 12:43:56;;;;;;;18.48;3.22;;;6.90;99.90;;;;;;4858886;29;20133;-84
2022/01/05 12:46:59;;;;;;;18.45;3.60;;;6.80;99.90;;;;;;4839407;29;20066;-84
2022/01/05 12:49:29;;;;;;;23.35;3.45;;;6.90;99.90;;;;;;4847410;29;20141;-83
2022/01/05 12:52:10;;;;;;;26.45;3.38;;;7.00;99.90;;;;;;4846290;29;20060;-83